createdAt,value
2022-09-29T00:00:42.448Z,67.84
2022-09-29T00:03:48.658Z,67.95
2022-09-29T00:06:53.195Z,68.11
2022-09-29T00:09:59.462Z,68.22
2022-09-29T00:13:05.863Z,67.94
2022-09-29T00:16:13.007Z,67.94
2022-09-29T00:19:19.625Z,67.89
2022-09-29T00:22:25.939Z,67.92
2022-09-29T00:25:32.298Z,67.90
2022-09-29T00:28:39.795Z,67.87
2022-09-29T00:31:46.142Z,68.06
2022-09-29T00:34:53.010Z,68.13
2022-09-29T00:37:59.296Z,68.12
2022-09-29T00:41:06.530Z,68.27
2022-09-29T00:44:43.283Z,68.41
2022-09-29T00:47:53.715Z,68.48
2022-09-29T00:51:00.978Z,68.61
2022-09-29T00:54:09.426Z,68.60
2022-09-29T00:57:21.714Z,68.54
2022-09-29T01:00:28.411Z,68.54
2022-09-29T01:03:38.509Z,68.55
2022-09-29T01:06:48.923Z,68.57
2022-09-29T01:09:58.542Z,68.61
2022-09-29T01:13:05.307Z,68.59
2022-09-29T01:16:11.666Z,68.59
2022-09-29T01:19:22.343Z,68.54
2022-09-29T01:22:58.739Z,68.54
2022-09-29T01:26:29.334Z,68.53
2022-09-29T01:30:01.658Z,68.44
2022-09-29T01:33:26.075Z,68.36
2022-09-29T01:36:45.826Z,68.27
2022-09-29T01:40:01.625Z,68.17
2022-09-29T01:43:12.970Z,68.28
2022-09-29T01:46:25.915Z,68.08
2022-09-29T01:49:36.517Z,68.11
2022-09-29T01:52:47.986Z,68.04
2022-09-29T01:56:00.054Z,67.81
2022-09-29T01:59:13.258Z,67.62
2022-09-29T02:02:23.991Z,67.55
2022-09-29T02:05:34.862Z,67.57
2022-09-29T02:08:44.462Z,67.58
2022-09-29T02:11:54.372Z,67.61
2022-09-29T02:15:03.822Z,67.61
2022-09-29T02:18:16.038Z,66.65
2022-09-29T02:21:23.621Z,66.88
2022-09-29T02:24:29.949Z,67.06
2022-09-29T02:27:37.407Z,67.26
2022-09-29T02:30:43.742Z,67.51
2022-09-29T02:33:49.992Z,67.03
2022-09-29T02:37:06.540Z,67.21
2022-09-29T02:40:33.047Z,67.38
2022-09-29T02:44:14.983Z,67.57
2022-09-29T02:47:47.129Z,67.45
2022-09-29T02:51:01.816Z,67.30
2022-09-29T02:54:21.337Z,67.20
2022-09-29T02:57:36.700Z,67.34
2022-09-29T03:00:44.292Z,67.57
2022-09-29T03:03:50.753Z,67.56
2022-09-29T03:06:57.230Z,67.51
2022-09-29T03:10:03.539Z,67.36
2022-09-29T03:13:09.773Z,67.34
2022-09-29T03:16:14.328Z,67.50
2022-09-29T03:19:20.574Z,67.80
2022-09-29T03:22:25.305Z,67.62
2022-09-29T03:25:31.592Z,67.67
2022-09-29T03:28:38.153Z,67.33
2022-09-29T03:31:44.418Z,67.33
2022-09-29T03:34:50.750Z,67.39
2022-09-29T03:37:58.396Z,67.39
2022-09-29T03:41:05.079Z,67.48
2022-09-29T03:44:11.337Z,67.22
2022-09-29T03:47:17.807Z,67.24
2022-09-29T03:50:24.212Z,67.19
2022-09-29T03:53:31.224Z,67.30
2022-09-29T03:56:37.739Z,67.20
2022-09-29T03:59:45.732Z,66.98
2022-09-29T04:02:52.257Z,67.16
2022-09-29T04:05:56.821Z,67.21
2022-09-29T04:09:03.352Z,67.32
2022-09-29T04:12:09.843Z,67.27
2022-09-29T04:15:16.250Z,67.26
2022-09-29T04:18:22.517Z,67.18
2022-09-29T04:21:28.985Z,67.21
2022-09-29T04:24:35.240Z,67.23
2022-09-29T04:27:39.853Z,67.13
2022-09-29T04:30:46.623Z,67.55
2022-09-29T04:33:52.895Z,67.64
2022-09-29T04:36:59.140Z,67.56
2022-09-29T04:40:05.302Z,67.58
2022-09-29T04:43:11.510Z,67.77
2022-09-29T04:46:16.596Z,67.87
2022-09-29T04:49:23.139Z,67.86
2022-09-29T04:52:29.482Z,67.53
2022-09-29T04:55:35.723Z,67.35
2022-09-29T04:58:40.243Z,67.31
2022-09-29T05:01:46.990Z,67.42
2022-09-29T05:04:53.287Z,67.48
2022-09-29T05:08:00.113Z,67.42
2022-09-29T05:11:08.828Z,67.34
2022-09-29T05:14:15.315Z,67.36
2022-09-29T05:17:21.513Z,67.54
2022-09-29T05:20:29.255Z,67.66
2022-09-29T05:23:38.671Z,67.99
2022-09-29T05:26:43.237Z,67.91
2022-09-29T05:29:49.432Z,68.10
2022-09-29T05:32:58.762Z,67.87
2022-09-29T05:36:07.972Z,68.07
2022-09-29T05:39:14.405Z,68.20
2022-09-29T05:42:20.818Z,68.02
2022-09-29T05:45:27.048Z,67.82
2022-09-29T05:48:33.812Z,68.09
2022-09-29T05:51:40.109Z,68.18
2022-09-29T05:54:46.391Z,68.10
2022-09-29T05:57:52.782Z,67.54
2022-09-29T06:00:59.037Z,67.46
2022-09-29T06:04:05.726Z,67.82
2022-09-29T06:07:12.092Z,68.02
2022-09-29T06:10:18.497Z,67.84
2022-09-29T06:13:24.730Z,67.73
2022-09-29T06:16:30.111Z,67.93
2022-09-29T06:19:36.439Z,68.20
2022-09-29T06:22:40.929Z,68.20
2022-09-29T06:25:47.237Z,68.40
2022-09-29T06:28:54.049Z,68.02
2022-09-29T06:32:00.415Z,67.57
2022-09-29T06:35:25.463Z,67.92
2022-09-29T06:38:31.722Z,68.19
2022-09-29T06:41:36.593Z,67.88
2022-09-29T06:44:42.781Z,68.01
2022-09-29T06:47:47.553Z,68.14
2022-09-29T06:51:03.485Z,68.31
2022-09-29T06:54:15.123Z,68.02
2022-09-29T06:57:21.382Z,68.32
2022-09-29T07:00:27.669Z,68.36
2022-09-29T07:03:34.873Z,68.18
2022-09-29T07:06:41.265Z,67.98
2022-09-29T07:09:47.593Z,67.71
2022-09-29T07:12:55.654Z,67.58
2022-09-29T07:16:08.205Z,67.52
2022-09-29T07:19:14.646Z,68.23
2022-09-29T07:22:20.921Z,68.50
2022-09-29T07:25:50.417Z,68.63
2022-09-29T07:28:54.378Z,68.64
2022-09-29T07:32:00.707Z,68.29
2022-09-29T07:35:08.267Z,67.77
2022-09-29T07:38:14.469Z,68.35
2022-09-29T07:41:19.686Z,68.41
2022-09-29T07:44:25.989Z,68.07
2022-09-29T07:47:32.247Z,67.85
2022-09-29T07:50:38.505Z,68.00
2022-09-29T07:53:45.780Z,68.14
2022-09-29T07:56:52.003Z,68.08
2022-09-29T07:59:58.564Z,67.54
2022-09-29T08:03:07.506Z,67.90
2022-09-29T08:06:14.410Z,68.13
2022-09-29T08:09:22.311Z,67.61
2022-09-29T08:12:42.037Z,66.96
2022-09-29T08:15:49.902Z,67.32
2022-09-29T08:18:56.374Z,67.36
2022-09-29T08:22:02.611Z,67.52
2022-09-29T08:25:07.743Z,67.55
2022-09-29T08:28:22.099Z,67.51
2022-09-29T08:31:33.794Z,67.57
2022-09-29T08:34:40.450Z,67.51
2022-09-29T08:37:46.716Z,66.91
2022-09-29T08:40:53.159Z,66.97
2022-09-29T08:44:03.743Z,67.17
2022-09-29T08:47:19.940Z,67.39
2022-09-29T08:50:33.054Z,67.56
2022-09-29T08:53:57.307Z,67.71
2022-09-29T08:57:05.994Z,67.76
2022-09-29T09:00:15.914Z,68.07
2022-09-29T09:03:43.018Z,68.35
2022-09-29T09:06:58.001Z,67.94
2022-09-29T09:10:17.712Z,67.66
2022-09-29T09:13:36.335Z,67.70
2022-09-29T09:16:53.470Z,67.89
2022-09-29T09:20:12.455Z,67.27
2022-09-29T09:23:25.898Z,67.33
2022-09-29T09:26:38.054Z,67.57
2022-09-29T09:29:46.238Z,67.45
2022-09-29T09:32:56.961Z,66.08
2022-09-29T09:36:08.383Z,66.39
2022-09-29T09:39:20.429Z,66.39
2022-09-29T09:42:30.533Z,66.33
2022-09-29T09:45:41.372Z,67.26
2022-09-29T09:48:57.385Z,67.33
2022-09-29T09:52:04.784Z,67.45
2022-09-29T09:55:18.166Z,65.64
2022-09-29T09:58:36.682Z,65.30
2022-09-29T10:01:43.658Z,65.20
2022-09-29T10:04:53.191Z,65.31
2022-09-29T10:08:00.414Z,65.54
2022-09-29T10:11:16.857Z,64.36
2022-09-29T10:14:27.881Z,62.21
2022-09-29T10:17:40.658Z,61.52
2022-09-29T10:20:47.612Z,63.11
2022-09-29T10:23:57.717Z,62.79
2022-09-29T10:27:05.505Z,60.84
2022-09-29T10:30:24.426Z,60.05
2022-09-29T10:33:31.352Z,61.53
2022-09-29T10:36:53.854Z,61.46
2022-09-29T10:40:15.165Z,60.76
2022-09-29T10:43:27.841Z,60.34
2022-09-29T10:46:50.514Z,58.64
2022-09-29T10:50:17.395Z,58.43
2022-09-29T10:53:32.208Z,62.36
2022-09-29T10:56:47.390Z,62.55
2022-09-29T10:59:55.774Z,62.37
2022-09-29T11:03:07.433Z,60.99
2022-09-29T11:06:15.726Z,59.77
2022-09-29T11:09:38.042Z,59.26
2022-09-29T11:12:46.054Z,59.95
2022-09-29T11:15:52.630Z,62.40
2022-09-29T11:19:02.103Z,64.22
2022-09-29T11:22:37.934Z,61.36
2022-09-29T11:26:25.098Z,62.39
2022-09-29T11:29:43.483Z,64.10
2022-09-29T11:33:11.282Z,64.34
2022-09-29T11:36:25.222Z,64.70
2022-09-29T11:39:45.270Z,64.59
2022-09-29T11:43:12.263Z,64.00
2022-09-29T11:46:31.428Z,63.15
2022-09-29T11:49:58.187Z,63.21
2022-09-29T11:53:21.735Z,63.34
2022-09-29T11:56:43.309Z,62.93
2022-09-29T12:00:06.713Z,62.17
2022-09-29T12:03:33.589Z,62.14
2022-09-29T12:06:56.189Z,60.82
2022-09-29T12:10:26.444Z,60.12
2022-09-29T12:13:46.901Z,60.72
2022-09-29T12:16:58.834Z,61.67
2022-09-29T12:20:16.070Z,62.08
2022-09-29T12:23:25.890Z,62.00
2022-09-29T12:26:34.901Z,62.17
2022-09-29T12:29:45.165Z,61.57
2022-09-29T12:32:57.633Z,61.87
2022-09-29T12:36:37.220Z,62.10
2022-09-29T12:39:54.059Z,61.84
2022-09-29T12:43:15.856Z,61.33
2022-09-29T12:46:29.325Z,61.03
2022-09-29T12:49:40.299Z,61.55
2022-09-29T12:52:55.419Z,61.38
2022-09-29T12:56:04.606Z,62.25
2022-09-29T12:59:17.539Z,62.76
2022-09-29T13:02:45.177Z,62.49
2022-09-29T13:06:27.052Z,62.07
2022-09-29T13:10:00.173Z,62.06
2022-09-29T13:13:42.978Z,62.66
2022-09-29T13:17:01.788Z,62.92
2022-09-29T13:20:29.194Z,62.61
2022-09-29T13:23:56.711Z,62.43
2022-09-29T13:27:27.577Z,62.45
2022-09-29T13:30:38.731Z,63.03
2022-09-29T13:33:51.528Z,63.01
2022-09-29T13:37:13.231Z,63.32
2022-09-29T13:40:28.507Z,63.59
2022-09-29T13:44:08.009Z,63.67
2022-09-29T13:47:33.847Z,63.52
2022-09-29T13:50:48.003Z,63.68
2022-09-29T13:54:29.647Z,63.97
2022-09-29T13:57:35.791Z,63.93
2022-09-29T14:00:44.579Z,63.43
2022-09-29T14:03:51.539Z,63.56
2022-09-29T14:07:03.358Z,63.64
2022-09-29T14:10:24.664Z,63.95
2022-09-29T14:13:35.530Z,63.85
2022-09-29T14:16:54.786Z,63.74
2022-09-29T14:20:09.954Z,63.88
2022-09-29T14:23:36.436Z,64.05
2022-09-29T14:26:52.663Z,64.20
2022-09-29T14:30:12.853Z,64.02
2022-09-29T14:33:23.123Z,64.00
2022-09-29T14:36:33.306Z,63.91
2022-09-29T14:40:02.843Z,63.93
2022-09-29T14:43:17.951Z,64.00
2022-09-29T14:47:11.704Z,64.03
2022-09-29T14:51:07.430Z,64.12
2022-09-29T14:54:25.520Z,64.28
2022-09-29T14:57:52.537Z,64.87
2022-09-29T15:01:10.446Z,65.06
2022-09-29T15:04:19.294Z,65.40
2022-09-29T15:07:27.818Z,65.82
2022-09-29T15:10:41.321Z,65.81
2022-09-29T15:13:47.599Z,66.07
2022-09-29T15:17:07.114Z,65.75
2022-09-29T15:20:23.997Z,65.92
2022-09-29T15:24:09.687Z,66.08
2022-09-29T15:27:17.050Z,65.60
2022-09-29T15:30:25.112Z,65.28
2022-09-29T15:33:33.273Z,65.12
2022-09-29T15:36:41.453Z,65.19
2022-09-29T15:39:53.013Z,65.82
2022-09-29T15:42:59.262Z,65.73
2022-09-29T15:46:17.203Z,65.19
2022-09-29T15:49:24.804Z,64.44
2022-09-29T15:52:31.659Z,64.79
2022-09-29T15:55:38.213Z,64.76
2022-09-29T15:58:48.582Z,65.16
2022-09-29T16:02:03.339Z,65.22
2022-09-29T16:05:15.709Z,65.59
2022-09-29T16:08:24.885Z,65.48
2022-09-29T16:11:36.151Z,65.38
2022-09-29T16:14:44.116Z,65.19
2022-09-29T16:17:52.796Z,65.56
2022-09-29T16:21:01.259Z,64.26
2022-09-29T16:24:15.508Z,64.16
2022-09-29T16:27:53.886Z,64.34
2022-09-29T16:31:07.717Z,64.80
2022-09-29T16:34:28.891Z,65.34
2022-09-29T16:37:35.265Z,65.36
2022-09-29T16:40:43.055Z,65.65
2022-09-29T16:43:50.404Z,65.40
2022-09-29T16:46:59.765Z,65.71
2022-09-29T16:50:14.157Z,65.80
2022-09-29T16:53:29.796Z,65.55
2022-09-29T16:56:36.865Z,65.69
2022-09-29T16:59:43.166Z,65.58
2022-09-29T17:02:51.906Z,65.48
2022-09-29T17:05:59.699Z,65.60
2022-09-29T17:09:07.164Z,65.64
2022-09-29T17:12:16.393Z,65.83
2022-09-29T17:15:23.653Z,65.89
2022-09-29T17:18:30.507Z,66.07
2022-09-29T17:21:36.843Z,66.05
2022-09-29T17:24:43.050Z,65.94
2022-09-29T17:28:04.777Z,65.76
2022-09-29T17:31:13.802Z,65.78
2022-09-29T17:34:29.930Z,65.72
2022-09-29T17:37:36.357Z,65.76
2022-09-29T17:40:50.667Z,65.72
2022-09-29T17:43:56.943Z,65.75
2022-09-29T17:47:17.322Z,65.71
2022-09-29T17:50:32.839Z,65.85
2022-09-29T17:53:39.070Z,65.57
2022-09-29T17:56:44.843Z,65.62
2022-09-29T17:59:49.461Z,65.70
2022-09-29T18:02:57.345Z,65.71
2022-09-29T18:06:03.985Z,65.68
2022-09-29T18:09:17.896Z,65.78
2022-09-29T18:12:24.213Z,66.06
2022-09-29T18:15:30.997Z,66.26
2022-09-29T18:18:37.232Z,66.16
2022-09-29T18:21:41.794Z,66.36
2022-09-29T18:24:48.138Z,66.63
2022-09-29T18:27:54.542Z,66.62
2022-09-29T18:31:12.319Z,66.73
2022-09-29T18:34:20.662Z,66.83
2022-09-29T18:37:27.189Z,66.89
2022-09-29T18:40:34.542Z,66.95
2022-09-29T18:43:40.799Z,66.93
2022-09-29T18:46:45.712Z,66.83
2022-09-29T18:49:51.974Z,66.95
2022-09-29T18:52:56.838Z,66.92
2022-09-29T18:56:05.402Z,67.03
2022-09-29T18:59:13.931Z,67.07
2022-09-29T19:02:20.335Z,67.12
2022-09-29T19:05:29.329Z,67.15
2022-09-29T19:08:36.346Z,67.32
2022-09-29T19:11:42.620Z,67.37
2022-09-29T19:14:48.898Z,67.41
2022-09-29T19:17:57.772Z,67.47
2022-09-29T19:21:05.292Z,67.55
2022-09-29T19:24:11.533Z,67.53
2022-09-29T19:27:16.115Z,67.69
2022-09-29T19:30:23.832Z,67.87
2022-09-29T19:33:30.086Z,67.64
2022-09-29T19:36:36.334Z,67.55
2022-09-29T19:39:46.734Z,67.64
2022-09-29T19:42:53.701Z,67.49
2022-09-29T19:46:07.128Z,67.37
2022-09-29T19:49:13.552Z,67.44
2022-09-29T19:52:19.926Z,67.41
2022-09-29T19:55:26.817Z,67.53
2022-09-29T19:58:33.485Z,67.67
2022-09-29T20:01:39.811Z,67.83
2022-09-29T20:04:46.671Z,67.80
2022-09-29T20:07:53.894Z,67.82
2022-09-29T20:11:08.669Z,67.83
2022-09-29T20:14:16.122Z,68.01
2022-09-29T20:17:22.495Z,68.01
2022-09-29T20:20:29.441Z,68.28
2022-09-29T20:23:36.201Z,68.43
2022-09-29T20:26:44.492Z,68.37
2022-09-29T20:29:51.039Z,68.33
2022-09-29T20:32:57.225Z,68.39
2022-09-29T20:36:04.092Z,68.57
2022-09-29T20:39:11.243Z,68.80
2022-09-29T20:42:17.557Z,68.63
2022-09-29T20:45:23.882Z,68.59
2022-09-29T20:48:30.417Z,68.59
2022-09-29T20:51:38.180Z,68.67
2022-09-29T20:54:48.504Z,68.52
2022-09-29T20:58:00.525Z,68.49
2022-09-29T21:01:16.351Z,68.74
2022-09-29T21:04:24.040Z,69.10
2022-09-29T21:07:40.519Z,69.20
2022-09-29T21:10:46.992Z,69.32
2022-09-29T21:13:57.005Z,69.20
2022-09-29T21:17:03.717Z,69.08
2022-09-29T21:20:11.297Z,69.08
2022-09-29T21:23:17.906Z,69.01
2022-09-29T21:26:26.625Z,69.07
2022-09-29T21:29:33.371Z,69.13
2022-09-29T21:32:40.161Z,69.10
2022-09-29T21:35:46.713Z,69.10
2022-09-29T21:38:53.355Z,69.24
2022-09-29T21:41:59.944Z,69.40
2022-09-29T21:45:07.917Z,69.66
2022-09-29T21:48:14.930Z,69.77
2022-09-29T21:51:24.241Z,69.68
2022-09-29T21:54:31.568Z,69.64
2022-09-29T21:57:39.570Z,69.48
2022-09-29T22:00:46.292Z,69.37
2022-09-29T22:03:54.332Z,69.13
2022-09-29T22:07:01.556Z,69.20
2022-09-29T22:10:09.594Z,69.14
2022-09-29T22:13:16.197Z,69.09
2022-09-29T22:16:25.691Z,68.94
2022-09-29T22:19:32.315Z,68.85
2022-09-29T22:22:38.843Z,68.90
2022-09-29T22:25:48.550Z,68.85
2022-09-29T22:29:00.652Z,68.90
2022-09-29T22:32:07.316Z,68.80
2022-09-29T22:35:13.856Z,68.88
2022-09-29T22:38:20.607Z,68.95
2022-09-29T22:41:27.196Z,69.01
2022-09-29T22:44:33.780Z,69.21
2022-09-29T22:47:40.350Z,69.37
2022-09-29T22:50:49.837Z,69.54
2022-09-29T22:53:56.491Z,69.62
2022-09-29T22:57:03.030Z,69.64
2022-09-29T23:00:12.352Z,69.59
2022-09-29T23:03:18.932Z,69.46
2022-09-29T23:06:25.502Z,69.47
2022-09-29T23:09:50.606Z,69.52
2022-09-29T23:13:00.994Z,69.85
2022-09-29T23:16:21.369Z,70.17
2022-09-29T23:19:32.941Z,71.03
2022-09-29T23:22:43.862Z,71.43
2022-09-29T23:26:05.694Z,71.75
2022-09-29T23:29:32.887Z,71.79
2022-09-29T23:32:59.590Z,72.00
2022-09-29T23:36:29.000Z,71.82
2022-09-29T23:39:41.223Z,71.61
2022-09-29T23:42:53.718Z,71.32
2022-09-29T23:46:04.038Z,71.26
2022-09-29T23:49:23.500Z,71.09
2022-09-29T23:52:54.903Z,71.17
2022-09-29T23:56:17.124Z,71.16
2022-09-29T23:59:29.552Z,71.08
